AirNav    Bose A20 Aviation Headset
 
 1505 users online  

Z43 Tamgas Harbor Seaplane Base
Annette, Alaska, USA

GOING TO ANNETTE?


FAA INFORMATION EFFECTIVE 15 AUGUST 2019

Location

FAA Identifier: Z43
Lat/Long: 55-04-04.7720N 131-33-25.0370W
55-04.079533N 131-33.417283W
55.0679922,-131.5569547
(estimated)
Elevation: 0 ft. / 0 m (estimated)
Variation: 26E (1985)
From city: 2 miles NE of ANNETTE, AK
Time zone: UTC -8 (UTC -9 during Standard Time)
Zip code: 99926

Seaplane Base Operations

Seaplane Base use: Open to the public
Control tower: no
ARTCC: ANCHORAGE CENTER
FSS: KETCHIKAN FLIGHT SERVICE STATION [907-225-9481]
Alternate FSS: JNU JUNEAU FLIGHT SERVICE STATION [1-866-297-2236]
NOTAMs facility: KTN (NOTAM-D service available)
Attendance: UNATNDD
Wind indicator: no
Segmented circle: no

Seaplane Base Communications

CTAF: 122.9
WX ASOS at ANN (1.6 nm S): 135.75 (907-886-3246)
WX AWOS-3P at MTM (4 nm N): 135.55
WX ASOS at KTN (18 nm N): 134.45 (907-247-8801)

Nearby radio navigation aids

VOR radial/distance  VOR name  Freq  Var
ANN at fieldANNETTE ISLAND VOR/DME117.1021E

 
NDB name  Hdg/Dist  Freq  Var  ID
NICHOLS078/1.726618EICK .. -.-. -.-
CLAM COVE143/17.139621ECMJ -.-. -- .---

Seaplane Base Services

Airframe service: NONE
Powerplant service: NONE
Bottled oxygen: NONE
Bulk oxygen: NONE

Runway Information

Runway NW/SE

Dimensions: 10560 x 1500 ft. / 3219 x 457 m
Surface: water
RUNWAY NW  RUNWAY SE
Elevation: 0.0 ft.0.0 ft.
Traffic pattern: leftleft

Seaplane Base Ownership and Management from official FAA records

Ownership: Publicly-owned
Owner: COUNCIL OF ANNETTE IS
P.O. BOX 8
METLAKATLA, AK 99926
Phone 907-886-4441
Manager: CHIEF OF POLICE
, P.O. BOX 8
METLAKATLA, AK 99926
Phone (907) 886-4011

Additional Remarks

ROCK JETTI, DOCK AVBL.
CALL POLICE DEPARTMENT AT 907-886-4011 OR VHF CHANNEL 80 PRIOR TO LANDING AT STRIP OR SPB.
BE ALERT MANY DIVERS & BOATERS IN THE AREA.

Instrument Procedures

There are no published instrument procedures at Z43.

Some nearby airports with instrument procedures:

PAKT - Ketchikan International Airport (18 nm N)
PAKW - Klawock Airport (60 nm NW)
PAWG - Wrangell Airport (89 nm N)
 
Loc | Ops | Rwys | IFR | FBO | Links
Com | Nav | Svcs | Stats | Notes

Crowley
 
Area around Z43 (Tamgas Harbor Seaplane Base)
 
Road maps at: MapQuest Bing Google
 
Aerial photo
No photo
 
Sectional chart

 
Airport distance calculator
Flying to Tamgas Harbor Seaplane Base? Find the distance to fly.

From to Z43

Sunrise and sunset
Times for 20-Aug-2019
 Local
(UTC-8)
 Zulu
(UTC)
Morning civil twilight04:5012:50
Sunrise05:3113:31
Sunset20:0804:08
Evening civil twilight20:4904:49

Current date and time
Zulu (UTC)  20-Aug-2019 15:11:36
Local (UTC-8)  20-Aug-2019 07:11:36
 
METAR
PANT 
2nm S 
191953Z AUTO 17007KT 10SM BKN050 BKN065 16/06 A2992 RMK SLP134 T01560056 TSNO VIA AUTODIAL
PAMM 
4nm N 
201431Z AUTO VRB03KT 3SM +RA BR OVC012 14/14 A2962 RMK AO2 P0015 $
PAKT 
18nm N 
201401Z 00000KT 3SM +RA BR SCT005 BKN012 OVC020 11/11 A2962 RMK HARBOR WIND VRB06KT P0005 T01060106 VIA AUTODIAL
TAF
PAKT 
18nm N 
201145Z 2012/2112 14010KT 3SM RA BR FEW015 OVC025 FM201600 14013KT 2SM +RA BR OVC020 WS020/16045KT FM202300 14015G25KT 3SM RA BR OVC020 WS020/15045KT FM210300 14020G35KT 4SM RA BR OVC020 WS020/14045KT FM211000 14015G25KT 4SM RA BR OVC015 WS020/14040KT AMD LTD TO CLD VIS AND WIND 2012/2015
NOTAMs
Click for the latest NOTAMs
NOTAMs are issued by the DoD/FAA and will open in a separate window not controlled by AirNav.

 

 
 

Would you like to see your business listed on this page?

 If your business provides an interesting product or service to pilots, flight crews, aircraft, or users of the Tamgas Harbor Seaplane Base, you should consider listing it here.  To start the listing process, click on the button below
 
Add a business
 

Other Pages about Tamgas Harbor Seaplane Base

Update a link
 
Copyright © AirNav, LLC. All rights reserved. Privacy Policy  Contact